sensor_id;sensor_type;location;lat;lon;timestamp;pressure;altitude;pressure_sealevel;temperature
70831;BMP180;58451;51.550;7.208;2022-12-31T00:01:24;99685.80;;;12.40
70831;BMP180;58451;51.550;7.208;2022-12-31T00:02:56;99688.80;;;12.42
70831;BMP180;58451;51.550;7.208;2022-12-31T00:04:27;99697.80;;;12.46
70831;BMP180;58451;51.550;7.208;2022-12-31T00:05:59;99696.60;;;12.50
70831;BMP180;58451;51.550;7.208;2022-12-31T00:07:34;99702.40;;;12.50
70831;BMP180;58451;51.550;7.208;2022-12-31T00:09:06;99697.00;;;12.50
70831;BMP180;58451;51.550;7.208;2022-12-31T00:10:39;99687.60;;;12.50
70831;BMP180;58451;51.550;7.208;2022-12-31T00:12:12;99684.20;;;12.50
70831;BMP180;58451;51.550;7.208;2022-12-31T00:13:45;99691.20;;;12.52
70831;BMP180;58451;51.550;7.208;2022-12-31T00:15:17;99694.20;;;12.60
70831;BMP180;58451;51.550;7.208;2022-12-31T00:16:49;99687.60;;;12.60
70831;BMP180;58451;51.550;7.208;2022-12-31T00:18:21;99694.20;;;12.60
70831;BMP180;58451;51.550;7.208;2022-12-31T00:19:52;99692.20;;;12.62
70831;BMP180;58451;51.550;7.208;2022-12-31T00:21:28;99690.00;;;12.70
70831;BMP180;58451;51.550;7.208;2022-12-31T00:23:00;99696.40;;;12.70
70831;BMP180;58451;51.550;7.208;2022-12-31T00:24:32;99686.60;;;12.70
70831;BMP180;58451;51.550;7.208;2022-12-31T00:26:16;99696.00;;;12.70
70831;BMP180;58451;51.550;7.208;2022-12-31T00:27:48;99703.60;;;12.80
70831;BMP180;58451;51.550;7.208;2022-12-31T00:29:20;99704.20;;;12.80
70831;BMP180;58451;51.550;7.208;2022-12-31T00:30:52;99706.80;;;12.80
70831;BMP180;58451;51.550;7.208;2022-12-31T00:32:24;99701.20;;;12.80
70831;BMP180;58451;51.550;7.208;2022-12-31T00:33:58;99700.40;;;12.80
70831;BMP180;58451;51.550;7.208;2022-12-31T00:35:30;99693.40;;;12.80
70831;BMP180;58451;51.550;7.208;2022-12-31T00:37:01;99697.60;;;12.80
70831;BMP180;58451;51.550;7.208;2022-12-31T00:38:34;99700.00;;;12.80
70831;BMP180;58451;51.550;7.208;2022-12-31T00:40:07;99701.40;;;12.70
70831;BMP180;58451;51.550;7.208;2022-12-31T00:41:40;99690.80;;;12.70
70831;BMP180;58451;51.550;7.208;2022-12-31T00:43:13;99687.80;;;12.70
70831;BMP180;58451;51.550;7.208;2022-12-31T00:44:45;99694.00;;;12.70
70831;BMP180;58451;51.550;7.208;2022-12-31T00:46:18;99694.80;;;12.60
70831;BMP180;58451;51.550;7.208;2022-12-31T00:47:50;99698.60;;;12.60
70831;BMP180;58451;51.550;7.208;2022-12-31T00:49:22;99701.20;;;12.56
70831;BMP180;58451;51.550;7.208;2022-12-31T00:50:55;99686.40;;;12.50
70831;BMP180;58451;51.550;7.208;2022-12-31T00:52:26;99688.40;;;12.50
70831;BMP180;58451;51.550;7.208;2022-12-31T00:53:58;99690.20;;;12.50
70831;BMP180;58451;51.550;7.208;2022-12-31T00:55:30;99693.20;;;12.50
70831;BMP180;58451;51.550;7.208;2022-12-31T00:57:02;99685.80;;;12.50
70831;BMP180;58451;51.550;7.208;2022-12-31T00:58:34;99682.00;;;12.50
70831;BMP180;58451;51.550;7.208;2022-12-31T01:00:07;99681.40;;;12.48
70831;BMP180;58451;51.550;7.208;2022-12-31T01:01:40;99676.60;;;12.40
70831;BMP180;58451;51.550;7.208;2022-12-31T01:03:13;99678.20;;;12.40
70831;BMP180;58451;51.550;7.208;2022-12-31T01:04:45;99671.20;;;12.40
70831;BMP180;58451;51.550;7.208;2022-12-31T01:06:18;99666.20;;;12.36
70831;BMP180;58451;51.550;7.208;2022-12-31T01:07:49;99658.60;;;12.30
70831;BMP180;58451;51.550;7.208;2022-12-31T01:09:21;99657.40;;;12.30
70831;BMP180;58451;51.550;7.208;2022-12-31T01:10:53;99651.00;;;12.30
70831;BMP180;58451;51.550;7.208;2022-12-31T01:12:43;99652.40;;;12.30
70831;BMP180;58451;51.550;7.208;2022-12-31T01:14:18;99648.40;;;12.30
70831;BMP180;58451;51.550;7.208;2022-12-31T01:15:50;99648.00;;;12.30
70831;BMP180;58451;51.550;7.208;2022-12-31T01:17:22;99649.20;;;12.30
70831;BMP180;58451;51.550;7.208;2022-12-31T01:18:58;99647.00;;;12.24
70831;BMP180;58451;51.550;7.208;2022-12-31T01:20:39;99641.20;;;12.20
70831;BMP180;58451;51.550;7.208;2022-12-31T01:22:11;99641.20;;;12.20
70831;BMP180;58451;51.550;7.208;2022-12-31T01:23:43;99643.80;;;12.20
70831;BMP180;58451;51.550;7.208;2022-12-31T01:25:15;99637.40;;;12.20
70831;BMP180;58451;51.550;7.208;2022-12-31T01:26:47;99639.00;;;12.20
70831;BMP180;58451;51.550;7.208;2022-12-31T01:28:19;99632.00;;;12.20
70831;BMP180;58451;51.550;7.208;2022-12-31T01:29:51;99631.20;;;12.20
70831;BMP180;58451;51.550;7.208;2022-12-31T01:31:24;99632.40;;;12.20
70831;BMP180;58451;51.550;7.208;2022-12-31T01:32:57;99625.20;;;12.20
70831;BMP180;58451;51.550;7.208;2022-12-31T01:34:28;99625.80;;;12.20
70831;BMP180;58451;51.550;7.208;2022-12-31T01:36:09;99616.60;;;12.20
70831;BMP180;58451;51.550;7.208;2022-12-31T01:37:41;99620.60;;;12.22
70831;BMP180;58451;51.550;7.208;2022-12-31T01:39:13;99614.60;;;12.26
70831;BMP180;58451;51.550;7.208;2022-12-31T01:40:44;99612.80;;;12.30
70831;BMP180;58451;51.550;7.208;2022-12-31T01:42:16;99617.40;;;12.30
70831;BMP180;58451;51.550;7.208;2022-12-31T01:43:50;99618.80;;;12.30
70831;BMP180;58451;51.550;7.208;2022-12-31T01:45:25;99621.40;;;12.40
70831;BMP180;58451;51.550;7.208;2022-12-31T01:47:01;99620.60;;;12.40
70831;BMP180;58451;51.550;7.208;2022-12-31T01:48:35;99617.20;;;12.40
70831;BMP180;58451;51.550;7.208;2022-12-31T01:50:31;99614.00;;;12.50
70831;BMP180;58451;51.550;7.208;2022-12-31T01:52:18;99610.60;;;12.50
70831;BMP180;58451;51.550;7.208;2022-12-31T01:53:51;99611.20;;;12.50
70831;BMP180;58451;51.550;7.208;2022-12-31T01:55:30;99607.40;;;12.50
70831;BMP180;58451;51.550;7.208;2022-12-31T01:57:03;99612.20;;;12.50
70831;BMP180;58451;51.550;7.208;2022-12-31T01:58:42;99607.80;;;12.50
70831;BMP180;58451;51.550;7.208;2022-12-31T02:00:15;99612.00;;;12.54
70831;BMP180;58451;51.550;7.208;2022-12-31T02:01:48;99606.40;;;12.60
70831;BMP180;58451;51.550;7.208;2022-12-31T02:03:26;99596.00;;;12.60
70831;BMP180;58451;51.550;7.208;2022-12-31T02:05:02;99598.60;;;12.60
70831;BMP180;58451;51.550;7.208;2022-12-31T02:06:52;99599.60;;;12.60
70831;BMP180;58451;51.550;7.208;2022-12-31T02:08:25;99599.00;;;12.64
70831;BMP180;58451;51.550;7.208;2022-12-31T02:09:58;99596.00;;;12.68
70831;BMP180;58451;51.550;7.208;2022-12-31T02:11:33;99598.20;;;12.70
70831;BMP180;58451;51.550;7.208;2022-12-31T02:13:07;99602.80;;;12.70
70831;BMP180;58451;51.550;7.208;2022-12-31T02:14:45;99616.80;;;12.70
70831;BMP180;58451;51.550;7.208;2022-12-31T02:16:34;99619.80;;;12.74
70831;BMP180;58451;51.550;7.208;2022-12-31T02:20:16;99620.60;;;12.80
70831;BMP180;58451;51.550;7.208;2022-12-31T02:22:34;99628.40;;;12.80
70831;BMP180;58451;51.550;7.208;2022-12-31T02:24:36;99617.60;;;12.90
70831;BMP180;58451;51.550;7.208;2022-12-31T02:30:23;99599.80;;;13.10
70831;BMP180;58451;51.550;7.208;2022-12-31T02:32:07;99602.40;;;13.10
70831;BMP180;58451;51.550;7.208;2022-12-31T02:34:02;99604.40;;;13.20
70831;BMP180;58451;51.550;7.208;2022-12-31T02:37:19;99595.80;;;13.30
70831;BMP180;58451;51.550;7.208;2022-12-31T02:38:53;99592.20;;;13.34
70831;BMP180;58451;51.550;7.208;2022-12-31T02:40:26;99595.20;;;13.40
70831;BMP180;58451;51.550;7.208;2022-12-31T02:41:58;99596.60;;;13.50
70831;BMP180;58451;51.550;7.208;2022-12-31T02:43:30;99585.20;;;13.54
70831;BMP180;58451;51.550;7.208;2022-12-31T02:45:02;99595.80;;;13.60
70831;BMP180;58451;51.550;7.208;2022-12-31T02:46:50;99584.20;;;13.68
70831;BMP180;58451;51.550;7.208;2022-12-31T02:50:31;99588.20;;;13.70
70831;BMP180;58451;51.550;7.208;2022-12-31T02:54:19;99586.20;;;13.90
70831;BMP180;58451;51.550;7.208;2022-12-31T02:56:21;99593.20;;;13.90
70831;BMP180;58451;51.550;7.208;2022-12-31T03:00:00;99590.80;;;13.90
70831;BMP180;58451;51.550;7.208;2022-12-31T03:02:00;99586.40;;;14.00
70831;BMP180;58451;51.550;7.208;2022-12-31T03:03:45;99592.20;;;14.00
70831;BMP180;58451;51.550;7.208;2022-12-31T03:05:23;99595.80;;;14.00
70831;BMP180;58451;51.550;7.208;2022-12-31T03:06:55;99587.40;;;14.10
70831;BMP180;58451;51.550;7.208;2022-12-31T03:08:27;99593.20;;;14.10
70831;BMP180;58451;51.550;7.208;2022-12-31T03:10:00;99597.00;;;14.10
70831;BMP180;58451;51.550;7.208;2022-12-31T03:11:32;99591.20;;;14.10
70831;BMP180;58451;51.550;7.208;2022-12-31T03:13:23;99602.60;;;14.20
70831;BMP180;58451;51.550;7.208;2022-12-31T03:14:55;99601.40;;;14.20
70831;BMP180;58451;51.550;7.208;2022-12-31T03:16:27;99621.60;;;14.22
70831;BMP180;58451;51.550;7.208;2022-12-31T03:19:51;99622.60;;;14.30
70831;BMP180;58451;51.550;7.208;2022-12-31T03:21:41;99619.80;;;14.32
70831;BMP180;58451;51.550;7.208;2022-12-31T03:23:43;99630.80;;;14.40
70831;BMP180;58451;51.550;7.208;2022-12-31T03:25:34;99635.00;;;14.40
70831;BMP180;58451;51.550;7.208;2022-12-31T03:27:06;99640.20;;;14.40
70831;BMP180;58451;51.550;7.208;2022-12-31T03:28:42;99639.80;;;14.40
70831;BMP180;58451;51.550;7.208;2022-12-31T03:30:21;99639.00;;;14.32
70831;BMP180;58451;51.550;7.208;2022-12-31T03:31:52;99636.20;;;14.30
70831;BMP180;58451;51.550;7.208;2022-12-31T03:33:29;99642.80;;;14.30
70831;BMP180;58451;51.550;7.208;2022-12-31T03:35:02;99648.40;;;14.26
70831;BMP180;58451;51.550;7.208;2022-12-31T03:36:34;99653.20;;;14.20
70831;BMP180;58451;51.550;7.208;2022-12-31T03:38:06;99652.00;;;14.20
70831;BMP180;58451;51.550;7.208;2022-12-31T03:39:38;99649.20;;;14.20
70831;BMP180;58451;51.550;7.208;2022-12-31T03:41:10;99649.20;;;14.10
70831;BMP180;58451;51.550;7.208;2022-12-31T03:42:42;99658.60;;;14.10
70831;BMP180;58451;51.550;7.208;2022-12-31T03:44:14;99651.20;;;14.10
70831;BMP180;58451;51.550;7.208;2022-12-31T03:45:51;99651.20;;;14.10
70831;BMP180;58451;51.550;7.208;2022-12-31T03:47:24;99656.20;;;14.02
70831;BMP180;58451;51.550;7.208;2022-12-31T03:48:55;99650.40;;;14.00
70831;BMP180;58451;51.550;7.208;2022-12-31T03:50:27;99657.80;;;14.00
70831;BMP180;58451;51.550;7.208;2022-12-31T03:51:59;99645.80;;;14.02
70831;BMP180;58451;51.550;7.208;2022-12-31T03:53:33;99647.40;;;14.10
70831;BMP180;58451;51.550;7.208;2022-12-31T03:55:08;99641.20;;;14.10
70831;BMP180;58451;51.550;7.208;2022-12-31T03:56:40;99643.60;;;14.20
70831;BMP180;58451;51.550;7.208;2022-12-31T03:58:15;99636.20;;;14.20
70831;BMP180;58451;51.550;7.208;2022-12-31T03:59:47;99643.60;;;14.30
70831;BMP180;58451;51.550;7.208;2022-12-31T04:01:19;99637.00;;;14.30
70831;BMP180;58451;51.550;7.208;2022-12-31T04:02:55;99641.20;;;14.30
70831;BMP180;58451;51.550;7.208;2022-12-31T04:04:27;99638.00;;;14.38
70831;BMP180;58451;51.550;7.208;2022-12-31T04:05:58;99642.20;;;14.40
70831;BMP180;58451;51.550;7.208;2022-12-31T04:07:30;99637.40;;;14.48
70831;BMP180;58451;51.550;7.208;2022-12-31T04:09:02;99634.00;;;14.50
70831;BMP180;58451;51.550;7.208;2022-12-31T04:10:34;99653.60;;;14.50
70831;BMP180;58451;51.550;7.208;2022-12-31T04:12:07;99644.60;;;14.60
70831;BMP180;58451;51.550;7.208;2022-12-31T04:13:38;99642.00;;;14.60
70831;BMP180;58451;51.550;7.208;2022-12-31T04:15:19;99634.80;;;14.60
70831;BMP180;58451;51.550;7.208;2022-12-31T04:16:53;99635.20;;;14.60
70831;BMP180;58451;51.550;7.208;2022-12-31T04:18:25;99637.20;;;14.66
70831;BMP180;58451;51.550;7.208;2022-12-31T04:19:57;99639.60;;;14.70
70831;BMP180;58451;51.550;7.208;2022-12-31T04:21:29;99638.40;;;14.70
70831;BMP180;58451;51.550;7.208;2022-12-31T04:23:06;99655.40;;;14.70
70831;BMP180;58451;51.550;7.208;2022-12-31T04:24:38;99646.20;;;14.80
70831;BMP180;58451;51.550;7.208;2022-12-31T04:26:09;99646.00;;;14.80
70831;BMP180;58451;51.550;7.208;2022-12-31T04:27:41;99641.80;;;14.90
70831;BMP180;58451;51.550;7.208;2022-12-31T04:29:14;99659.20;;;14.90
70831;BMP180;58451;51.550;7.208;2022-12-31T04:30:46;99661.80;;;14.90
70831;BMP180;58451;51.550;7.208;2022-12-31T04:32:18;99641.40;;;14.90
70831;BMP180;58451;51.550;7.208;2022-12-31T04:33:49;99654.40;;;14.90
70831;BMP180;58451;51.550;7.208;2022-12-31T04:35:21;99644.60;;;14.90
70831;BMP180;58451;51.550;7.208;2022-12-31T04:36:53;99653.80;;;14.90
70831;BMP180;58451;51.550;7.208;2022-12-31T04:38:25;99650.20;;;14.90
70831;BMP180;58451;51.550;7.208;2022-12-31T04:39:57;99647.40;;;14.84
70831;BMP180;58451;51.550;7.208;2022-12-31T04:41:36;99655.60;;;14.80
70831;BMP180;58451;51.550;7.208;2022-12-31T04:43:08;99663.20;;;14.74
70831;BMP180;58451;51.550;7.208;2022-12-31T04:44:40;99674.40;;;14.70
70831;BMP180;58451;51.550;7.208;2022-12-31T04:46:12;99662.80;;;14.70
70831;BMP180;58451;51.550;7.208;2022-12-31T04:47:45;99659.60;;;14.70
70831;BMP180;58451;51.550;7.208;2022-12-31T04:49:16;99652.20;;;14.70
70831;BMP180;58451;51.550;7.208;2022-12-31T04:50:48;99663.60;;;14.70
70831;BMP180;58451;51.550;7.208;2022-12-31T04:52:20;99656.60;;;14.70
70831;BMP180;58451;51.550;7.208;2022-12-31T04:53:52;99659.00;;;14.70
70831;BMP180;58451;51.550;7.208;2022-12-31T04:55:25;99658.80;;;14.76
70831;BMP180;58451;51.550;7.208;2022-12-31T04:56:56;99660.80;;;14.80
70831;BMP180;58451;51.550;7.208;2022-12-31T04:58:28;99658.80;;;14.80
70831;BMP180;58451;51.550;7.208;2022-12-31T05:00:00;99667.40;;;14.90
70831;BMP180;58451;51.550;7.208;2022-12-31T05:01:32;99657.40;;;14.92
70831;BMP180;58451;51.550;7.208;2022-12-31T05:03:04;99654.40;;;15.00
70831;BMP180;58451;51.550;7.208;2022-12-31T05:04:36;99662.40;;;15.02
70831;BMP180;58451;51.550;7.208;2022-12-31T05:06:14;99662.60;;;15.10
70831;BMP180;58451;51.550;7.208;2022-12-31T05:07:46;99656.00;;;15.10
70831;BMP180;58451;51.550;7.208;2022-12-31T05:09:18;99664.60;;;15.20
70831;BMP180;58451;51.550;7.208;2022-12-31T05:10:50;99645.00;;;15.20
70831;BMP180;58451;51.550;7.208;2022-12-31T05:12:21;99643.00;;;15.20
70831;BMP180;58451;51.550;7.208;2022-12-31T05:13:53;99631.20;;;15.20
70831;BMP180;58451;51.550;7.208;2022-12-31T05:15:25;99646.20;;;15.30
70831;BMP180;58451;51.550;7.208;2022-12-31T05:16:57;99637.20;;;15.30
70831;BMP180;58451;51.550;7.208;2022-12-31T05:18:30;99658.40;;;15.30
70831;BMP180;58451;51.550;7.208;2022-12-31T05:20:03;99639.80;;;15.30
70831;BMP180;58451;51.550;7.208;2022-12-31T05:21:35;99636.80;;;15.30
70831;BMP180;58451;51.550;7.208;2022-12-31T05:23:07;99630.00;;;15.30
70831;BMP180;58451;51.550;7.208;2022-12-31T05:24:39;99640.80;;;15.40
70831;BMP180;58451;51.550;7.208;2022-12-31T05:26:11;99653.60;;;15.40
70831;BMP180;58451;51.550;7.208;2022-12-31T05:27:44;99651.60;;;15.50
70831;BMP180;58451;51.550;7.208;2022-12-31T05:29:15;99650.40;;;15.50
70831;BMP180;58451;51.550;7.208;2022-12-31T05:30:49;99655.80;;;15.48
70831;BMP180;58451;51.550;7.208;2022-12-31T05:32:21;99639.00;;;15.50
70831;BMP180;58451;51.550;7.208;2022-12-31T05:33:53;99661.60;;;15.50
70831;BMP180;58451;51.550;7.208;2022-12-31T05:35:25;99652.00;;;15.52
70831;BMP180;58451;51.550;7.208;2022-12-31T05:36:57;99667.00;;;15.52
70831;BMP180;58451;51.550;7.208;2022-12-31T05:38:29;99661.60;;;15.60
70831;BMP180;58451;51.550;7.208;2022-12-31T05:40:01;99663.40;;;15.60
70831;BMP180;58451;51.550;7.208;2022-12-31T05:41:33;99661.40;;;15.60
70831;BMP180;58451;51.550;7.208;2022-12-31T05:43:05;99656.60;;;15.60
70831;BMP180;58451;51.550;7.208;2022-12-31T05:44:37;99673.00;;;15.62
70831;BMP180;58451;51.550;7.208;2022-12-31T05:46:08;99670.00;;;15.70
70831;BMP180;58451;51.550;7.208;2022-12-31T05:47:41;99660.60;;;15.70
70831;BMP180;58451;51.550;7.208;2022-12-31T05:49:13;99665.80;;;15.70
70831;BMP180;58451;51.550;7.208;2022-12-31T05:50:45;99667.20;;;15.70
70831;BMP180;58451;51.550;7.208;2022-12-31T05:52:17;99667.20;;;15.70
70831;BMP180;58451;51.550;7.208;2022-12-31T05:55:28;99672.20;;;15.80
70831;BMP180;58451;51.550;7.208;2022-12-31T05:56:59;99672.20;;;15.80
70831;BMP180;58451;51.550;7.208;2022-12-31T05:58:31;99666.20;;;15.80
70831;BMP180;58451;51.550;7.208;2022-12-31T06:00:08;99664.20;;;15.80
70831;BMP180;58451;51.550;7.208;2022-12-31T06:01:44;99662.60;;;15.80
70831;BMP180;58451;51.550;7.208;2022-12-31T06:03:15;99677.40;;;15.80
70831;BMP180;58451;51.550;7.208;2022-12-31T06:04:48;99679.00;;;15.82
70831;BMP180;58451;51.550;7.208;2022-12-31T06:06:19;99682.60;;;15.86
70831;BMP180;58451;51.550;7.208;2022-12-31T06:07:51;99694.00;;;15.90
70831;BMP180;58451;51.550;7.208;2022-12-31T06:09:23;99692.40;;;15.90
70831;BMP180;58451;51.550;7.208;2022-12-31T06:10:55;99691.40;;;15.90
70831;BMP180;58451;51.550;7.208;2022-12-31T06:12:27;99681.00;;;15.90
70831;BMP180;58451;51.550;7.208;2022-12-31T06:13:59;99697.80;;;15.90
70831;BMP180;58451;51.550;7.208;2022-12-31T06:15:31;99684.60;;;15.90
70831;BMP180;58451;51.550;7.208;2022-12-31T06:17:03;99704.20;;;15.90
70831;BMP180;58451;51.550;7.208;2022-12-31T06:18:36;99718.60;;;15.90
70831;BMP180;58451;51.550;7.208;2022-12-31T06:20:09;99704.20;;;15.90
70831;BMP180;58451;51.550;7.208;2022-12-31T06:21:44;99712.40;;;15.90
70831;BMP180;58451;51.550;7.208;2022-12-31T06:23:15;99722.80;;;15.90
70831;BMP180;58451;51.550;7.208;2022-12-31T06:24:47;99714.00;;;15.90
70831;BMP180;58451;51.550;7.208;2022-12-31T06:26:19;99709.20;;;15.96
70831;BMP180;58451;51.550;7.208;2022-12-31T06:27:51;99716.00;;;16.00
70831;BMP180;58451;51.550;7.208;2022-12-31T06:29:23;99736.40;;;16.00
70831;BMP180;58451;51.550;7.208;2022-12-31T06:31:03;99741.40;;;16.00
70831;BMP180;58451;51.550;7.208;2022-12-31T06:32:35;99743.60;;;16.00
70831;BMP180;58451;51.550;7.208;2022-12-31T06:34:07;99728.40;;;16.00
70831;BMP180;58451;51.550;7.208;2022-12-31T06:35:39;99751.40;;;16.00
70831;BMP180;58451;51.550;7.208;2022-12-31T06:37:11;99756.60;;;16.04
70831;BMP180;58451;51.550;7.208;2022-12-31T06:38:42;99760.40;;;16.02
70831;BMP180;58451;51.550;7.208;2022-12-31T06:40:14;99750.80;;;16.00
70831;BMP180;58451;51.550;7.208;2022-12-31T06:41:46;99752.40;;;16.00
70831;BMP180;58451;51.550;7.208;2022-12-31T06:43:19;99771.60;;;16.00
70831;BMP180;58451;51.550;7.208;2022-12-31T06:44:51;99756.20;;;15.96
70831;BMP180;58451;51.550;7.208;2022-12-31T06:46:22;99751.80;;;15.90
70831;BMP180;58451;51.550;7.208;2022-12-31T06:47:54;99755.60;;;15.90
70831;BMP180;58451;51.550;7.208;2022-12-31T06:49:26;99762.40;;;15.90
70831;BMP180;58451;51.550;7.208;2022-12-31T06:51:06;99765.80;;;15.90
70831;BMP180;58451;51.550;7.208;2022-12-31T06:52:47;99759.80;;;15.92
70831;BMP180;58451;51.550;7.208;2022-12-31T06:54:19;99764.20;;;15.90
70831;BMP180;58451;51.550;7.208;2022-12-31T07:05:41;99782.40;;;16.00
70831;BMP180;58451;51.550;7.208;2022-12-31T07:11:56;99780.00;;;16.00
70831;BMP180;58451;51.550;7.208;2022-12-31T07:18:00;99788.20;;;16.00
70831;BMP180;58451;51.550;7.208;2022-12-31T07:19:48;99778.60;;;16.00
70831;BMP180;58451;51.550;7.208;2022-12-31T07:21:37;99797.60;;;16.00
70831;BMP180;58451;51.550;7.208;2022-12-31T07:23:10;99786.40;;;16.00
70831;BMP180;58451;51.550;7.208;2022-12-31T07:24:43;99806.60;;;16.00
70831;BMP180;58451;51.550;7.208;2022-12-31T07:28:38;99801.00;;;16.04
70831;BMP180;58451;51.550;7.208;2022-12-31T07:30:26;99807.80;;;16.02
70831;BMP180;58451;51.550;7.208;2022-12-31T07:32:27;99807.20;;;16.00
70831;BMP180;58451;51.550;7.208;2022-12-31T07:34:21;99815.80;;;16.00
70831;BMP180;58451;51.550;7.208;2022-12-31T07:40:17;99814.80;;;16.10
70831;BMP180;58451;51.550;7.208;2022-12-31T07:42:10;99817.60;;;16.10
70831;BMP180;58451;51.550;7.208;2022-12-31T07:47:45;99816.20;;;16.10
70831;BMP180;58451;51.550;7.208;2022-12-31T07:49:17;99829.00;;;16.10
70831;BMP180;58451;51.550;7.208;2022-12-31T07:50:53;99808.60;;;16.10
70831;BMP180;58451;51.550;7.208;2022-12-31T07:52:27;99818.60;;;16.10
70831;BMP180;58451;51.550;7.208;2022-12-31T07:53:59;99824.20;;;16.10
70831;BMP180;58451;51.550;7.208;2022-12-31T07:55:31;99832.20;;;16.10
70831;BMP180;58451;51.550;7.208;2022-12-31T07:57:03;99835.00;;;16.10
70831;BMP180;58451;51.550;7.208;2022-12-31T08:00:56;99833.00;;;16.20
70831;BMP180;58451;51.550;7.208;2022-12-31T08:05:00;99824.60;;;16.10
70831;BMP180;58451;51.550;7.208;2022-12-31T08:07:05;99823.80;;;16.14
70831;BMP180;58451;51.550;7.208;2022-12-31T08:11:06;99818.00;;;16.20
70831;BMP180;58451;51.550;7.208;2022-12-31T08:12:37;99827.40;;;16.20
70831;BMP180;58451;51.550;7.208;2022-12-31T08:14:12;99830.60;;;16.20
70831;BMP180;58451;51.550;7.208;2022-12-31T08:15:46;99826.40;;;16.20
70831;BMP180;58451;51.550;7.208;2022-12-31T08:17:20;99833.80;;;16.20
70831;BMP180;58451;51.550;7.208;2022-12-31T08:18:52;99836.60;;;16.20
70831;BMP180;58451;51.550;7.208;2022-12-31T08:20:25;99826.20;;;16.22
70831;BMP180;58451;51.550;7.208;2022-12-31T08:26:22;99843.00;;;16.24
70831;BMP180;58451;51.550;7.208;2022-12-31T08:28:34;99847.00;;;16.26
70831;BMP180;58451;51.550;7.208;2022-12-31T08:30:20;99843.20;;;16.28
70831;BMP180;58451;51.550;7.208;2022-12-31T08:32:21;99841.80;;;16.30
70831;BMP180;58451;51.550;7.208;2022-12-31T08:37:42;99849.40;;;16.30
70831;BMP180;58451;51.550;7.208;2022-12-31T08:41:39;99857.00;;;16.40
70831;BMP180;58451;51.550;7.208;2022-12-31T08:43:30;99865.20;;;16.40
70831;BMP180;58451;51.550;7.208;2022-12-31T08:48:57;99856.40;;;16.50
70831;BMP180;58451;51.550;7.208;2022-12-31T08:50:30;99866.20;;;16.50
70831;BMP180;58451;51.550;7.208;2022-12-31T08:52:05;99874.60;;;16.50
70831;BMP180;58451;51.550;7.208;2022-12-31T08:53:44;99859.20;;;16.50
70831;BMP180;58451;51.550;7.208;2022-12-31T08:55:17;99871.20;;;16.58
70831;BMP180;58451;51.550;7.208;2022-12-31T09:00:56;99870.80;;;16.60
70831;BMP180;58451;51.550;7.208;2022-12-31T09:02:57;99863.00;;;16.60
70831;BMP180;58451;51.550;7.208;2022-12-31T09:05:21;99856.80;;;16.62
70831;BMP180;58451;51.550;7.208;2022-12-31T09:07:01;99870.00;;;16.70
70831;BMP180;58451;51.550;7.208;2022-12-31T09:10:39;99863.00;;;16.70
70831;BMP180;58451;51.550;7.208;2022-12-31T09:17:47;99882.20;;;16.70
70831;BMP180;58451;51.550;7.208;2022-12-31T09:19:19;99876.00;;;16.70
70831;BMP180;58451;51.550;7.208;2022-12-31T09:20:52;99885.20;;;16.70
70831;BMP180;58451;51.550;7.208;2022-12-31T09:22:24;99894.60;;;16.70
70831;BMP180;58451;51.550;7.208;2022-12-31T09:23:57;99898.00;;;16.70
70831;BMP180;58451;51.550;7.208;2022-12-31T09:25:48;99907.00;;;16.70
70831;BMP180;58451;51.550;7.208;2022-12-31T09:27:42;99910.40;;;16.70
70831;BMP180;58451;51.550;7.208;2022-12-31T09:29:34;99915.60;;;16.70
70831;BMP180;58451;51.550;7.208;2022-12-31T09:31:16;99926.60;;;16.70
70831;BMP180;58451;51.550;7.208;2022-12-31T09:36:48;99933.60;;;16.70
70831;BMP180;58451;51.550;7.208;2022-12-31T09:38:51;99944.20;;;16.64
70831;BMP180;58451;51.550;7.208;2022-12-31T09:50:37;99973.80;;;16.70
70831;BMP180;58451;51.550;7.208;2022-12-31T09:56:46;100000.60;;;16.70
70831;BMP180;58451;51.550;7.208;2022-12-31T09:59:00;100000.40;;;16.72
70831;BMP180;58451;51.550;7.208;2022-12-31T10:05:24;100002.80;;;16.80
70831;BMP180;58451;51.550;7.208;2022-12-31T10:13:45;100004.60;;;16.70
70831;BMP180;58451;51.550;7.208;2022-12-31T10:18:02;100003.80;;;16.70
70831;BMP180;58451;51.550;7.208;2022-12-31T10:28:14;100022.20;;;16.70
70831;BMP180;58451;51.550;7.208;2022-12-31T10:34:22;100024.80;;;16.72
70831;BMP180;58451;51.550;7.208;2022-12-31T10:36:13;100019.40;;;16.76
70831;BMP180;58451;51.550;7.208;2022-12-31T10:38:25;100018.20;;;16.80
70831;BMP180;58451;51.550;7.208;2022-12-31T11:18:24;99988.00;;;17.50
70831;BMP180;58451;51.550;7.208;2022-12-31T11:20:51;99981.80;;;17.60
70831;BMP180;58451;51.550;7.208;2022-12-31T11:22:53;99977.20;;;17.60
70831;BMP180;58451;51.550;7.208;2022-12-31T11:26:37;99993.00;;;17.60
70831;BMP180;58451;51.550;7.208;2022-12-31T11:30:29;99979.40;;;17.70
70831;BMP180;58451;51.550;7.208;2022-12-31T11:32:25;100003.20;;;17.70
70831;BMP180;58451;51.550;7.208;2022-12-31T11:34:53;100003.00;;;17.68
70831;BMP180;58451;51.550;7.208;2022-12-31T11:36:46;100012.80;;;17.60
70831;BMP180;58451;51.550;7.208;2022-12-31T11:38:28;100011.20;;;17.50
70831;BMP180;58451;51.550;7.208;2022-12-31T11:42:41;100014.60;;;17.50
70831;BMP180;58451;51.550;7.208;2022-12-31T11:48:11;100026.00;;;17.30
70831;BMP180;58451;51.550;7.208;2022-12-31T11:52:51;100018.40;;;17.30
70831;BMP180;58451;51.550;7.208;2022-12-31T11:56:19;100013.40;;;17.30
70831;BMP180;58451;51.550;7.208;2022-12-31T11:57:52;100006.40;;;17.20
70831;BMP180;58451;51.550;7.208;2022-12-31T11:59:23;100005.80;;;17.20
70831;BMP180;58451;51.550;7.208;2022-12-31T12:01:13;100008.40;;;17.20
70831;BMP180;58451;51.550;7.208;2022-12-31T12:02:56;100017.00;;;17.10
70831;BMP180;58451;51.550;7.208;2022-12-31T12:04:30;100005.60;;;17.10
70831;BMP180;58451;51.550;7.208;2022-12-31T12:06:03;100016.60;;;17.10
70831;BMP180;58451;51.550;7.208;2022-12-31T12:07:35;100013.80;;;17.10
70831;BMP180;58451;51.550;7.208;2022-12-31T12:09:15;100023.20;;;17.10
70831;BMP180;58451;51.550;7.208;2022-12-31T12:10:55;100016.00;;;17.10
70831;BMP180;58451;51.550;7.208;2022-12-31T12:12:40;100008.60;;;17.02
70831;BMP180;58451;51.550;7.208;2022-12-31T12:14:20;100030.00;;;17.00
70831;BMP180;58451;51.550;7.208;2022-12-31T12:15:57;100029.40;;;17.00